Time;durP1;ratioP1;P1;durP2;ratioP2;P2;SDS_P1;SDS_P2;PMS_P1;PMS_P2;Temp;Humidity;BMP_temperature;BMP_pressure;BME280_temperature;BME280_humidity;BME280_pressure;Samples;Min_cycle;Max_cycle;Signal;HPM_P1;HPM_P2
2022/10/06 00:01:13;;;;;;;9.05;2.30;;;;;;;;;;20586370;28;20484;-64
2022/10/06 00:11:16;;;;;;;12.75;4.93;;;;;;;;;;20592520;28;20050;-63
2022/10/06 00:21:18;;;;;;;12.23;2.75;;;;;;;;;;20618053;28;20051;-65
2022/10/06 00:31:20;;;;;;;11.48;3.42;;;;;;;;;;20602198;28;20133;-62
2022/10/06 00:41:22;;;;;;;11.15;2.80;;;;;;;;;;20600993;28;20531;-62
2022/10/06 00:51:24;;;;;;;10.73;2.72;;;;;;;;;;20599166;28;20095;-62
2022/10/06 01:01:27;;;;;;;5.85;2.45;;;;;;;;;;20598828;28;20105;-62
2022/10/06 01:11:30;;;;;;;15.27;3.40;;;;;;;;;;20597779;28;20047;-61
2022/10/06 01:21:34;;;;;;;19.65;3.35;;;;;;;;;;20596673;28;20058;-61
2022/10/06 01:31:37;;;;;;;24.13;4.30;;;;;;;;;;20596483;28;20046;-63
2022/10/06 01:41:41;;;;;;;20.48;3.65;;;;;;;;;;20595456;28;20059;-65
2022/10/06 01:51:46;;;;;;;12.55;2.78;;;;;;;;;;20594876;28;20054;-63
2022/10/06 02:01:50;;;;;;;11.73;2.78;;;;;;;;;;20594221;28;20248;-62
2022/10/06 02:11:53;;;;;;;6.13;2.17;;;;;;;;;;20593492;28;20047;-61
2022/10/06 02:21:57;;;;;;;7.93;2.40;;;;;;;;;;20593523;28;20047;-61
2022/10/06 02:32:01;;;;;;;12.10;1.85;;;;;;;;;;20590869;28;20054;-61
2022/10/06 02:42:04;;;;;;;8.85;1.90;;;;;;;;;;20590882;28;20054;-62
2022/10/06 02:52:07;;;;;;;6.90;1.63;;;;;;;;;;20590578;28;20054;-62
2022/10/06 03:02:11;;;;;;;5.50;1.83;;;;;;;;;;20589479;28;20093;-62
2022/10/06 03:12:14;;;;;;;5.97;1.75;;;;;;;;;;20603816;28;20557;-62
2022/10/06 03:22:17;;;;;;;7.00;2.03;;;;;;;;;;20589415;28;20051;-62
2022/10/06 03:32:22;;;;;;;5.03;1.65;;;;;;;;;;20587595;28;20412;-63
2022/10/06 03:42:24;;;;;;;7.28;1.65;;;;;;;;;;20587203;28;20507;-62
2022/10/06 03:52:27;;;;;;;5.53;2.17;;;;;;;;;;20601973;28;20086;-62
2022/10/06 04:02:31;;;;;;;7.35;3.10;;;;;;;;;;20588039;28;20459;-62
2022/10/06 04:12:35;;;;;;;8.63;1.90;;;;;;;;;;20587043;28;20051;-62
2022/10/06 04:22:37;;;;;;;10.00;2.38;;;;;;;;;;20600649;28;20384;-62
2022/10/06 04:32:40;;;;;;;7.80;1.98;;;;;;;;;;20585233;28;20057;-63
2022/10/06 04:42:44;;;;;;;13.40;2.20;;;;;;;;;;20585578;28;20539;-63
2022/10/06 04:52:46;;;;;;;11.50;3.00;;;;;;;;;;20599683;28;20515;-64
2022/10/06 05:02:48;;;;;;;15.88;2.70;;;;;;;;;;20598311;28;20476;-65
2022/10/06 05:12:50;;;;;;;7.05;2.10;;;;;;;;;;20599299;28;20513;-65
2022/10/06 05:22:52;;;;;;;11.13;3.33;;;;;;;;;;20597577;28;20050;-63
2022/10/06 05:32:54;;;;;;;11.57;3.20;;;;;;;;;;20597311;28;20133;-65
2022/10/06 05:42:56;;;;;;;12.55;2.75;;;;;;;;;;20595829;28;20109;-65
2022/10/06 05:52:58;;;;;;;10.60;3.60;;;;;;;;;;20595355;28;20102;-65
2022/10/06 06:03:01;;;;;;;18.23;4.05;;;;;;;;;;20595511;28;20074;-62
2022/10/06 06:13:03;;;;;;;19.27;4.70;;;;;;;;;;20594925;28;20050;-62
2022/10/06 06:23:05;;;;;;;19.25;4.05;;;;;;;;;;20593470;28;20054;-61
2022/10/06 06:33:06;;;;;;;13.70;3.55;;;;;;;;;;20592444;28;20043;-62
2022/10/06 06:43:08;;;;;;;10.70;3.38;;;;;;;;;;20588530;28;20062;-66
2022/10/06 06:53:10;;;;;;;12.82;3.05;;;;;;;;;;20590465;28;20050;-74
2022/10/06 07:03:12;;;;;;;14.68;3.38;;;;;;;;;;20602430;28;20059;-63
2022/10/06 07:13:14;;;;;;;13.02;3.70;;;;;;;;;;20588362;28;20051;-65
2022/10/06 07:33:39;;;;;;;11.93;2.92;;;;;;;;;;20500114;28;20051;-61
2022/10/06 07:43:40;;;;;;;13.13;2.65;;;;;;;;;;20526496;28;20074;-65
2022/10/06 07:53:49;;;;;;;12.30;2.75;;;;;;;;;;20523123;28;20074;-66
2022/10/06 08:03:51;;;;;;;11.35;2.28;;;;;;;;;;20521802;28;20145;-61
2022/10/06 08:13:53;;;;;;;8.38;2.17;;;;;;;;;;20521617;28;20699;-62
2022/10/06 08:23:56;;;;;;;6.97;2.35;;;;;;;;;;20486973;28;20055;-63
2022/10/06 08:33:58;;;;;;;7.22;2.40;;;;;;;;;;20506273;28;20063;-60
2022/10/06 08:44:29;;;;;;;8.13;2.22;;;;;;;;;;20582287;28;20059;-62
2022/10/06 08:54:42;;;;;;;12.90;2.55;;;;;;;;;;20599845;28;20086;-63
2022/10/06 09:04:48;;;;;;;10.77;2.60;;;;;;;;;;20599341;28;20085;-61
2022/10/06 09:15:04;;;;;;;9.65;2.70;;;;;;;;;;20597790;28;20051;-61
2022/10/06 09:25:21;;;;;;;7.50;2.53;;;;;;;;;;20597312;28;20050;-61
2022/10/06 09:35:24;;;;;;;7.65;2.80;;;;;;;;;;20597777;28;20062;-63
2022/10/06 09:45:27;;;;;;;7.43;2.20;;;;;;;;;;20595413;28;20459;-62
2022/10/06 09:55:36;;;;;;;12.20;2.65;;;;;;;;;;20595124;28;20138;-63
2022/10/06 10:05:45;;;;;;;6.60;1.77;;;;;;;;;;20594475;28;20461;-63
2022/10/06 10:15:52;;;;;;;6.15;2.22;;;;;;;;;;20593688;28;20078;-63
2022/10/06 10:26:16;;;;;;;10.53;2.30;;;;;;;;;;20592418;28;20185;-65
2022/10/06 10:36:19;;;;;;;11.23;2.30;;;;;;;;;;20591118;28;20070;-64
2022/10/06 10:46:40;;;;;;;7.38;2.80;;;;;;;;;;20590683;28;20146;-61
2022/10/06 10:56:42;;;;;;;7.28;2.58;;;;;;;;;;20589667;28;20050;-65
2022/10/06 11:06:45;;;;;;;6.40;2.70;;;;;;;;;;20604439;28;20047;-63
2022/10/06 11:16:55;;;;;;;9.38;2.95;;;;;;;;;;20589396;28;20046;-61
2022/10/06 11:27:05;;;;;;;7.38;2.47;;;;;;;;;;20589439;28;20054;-64
2022/10/06 11:37:26;;;;;;;6.78;2.63;;;;;;;;;;20588469;28;20460;-66
2022/10/06 11:47:33;;;;;;;11.55;3.50;;;;;;;;;;20587026;28;20063;-64
2022/10/06 11:57:55;;;;;;;7.00;2.33;;;;;;;;;;20601590;28;20121;-67
2022/10/06 12:07:57;;;;;;;9.75;2.38;;;;;;;;;;20608247;28;20459;-64
2022/10/06 12:18:12;;;;;;;6.95;2.47;;;;;;;;;;20604299;28;20074;-65
2022/10/06 12:28:22;;;;;;;3.65;1.73;;;;;;;;;;20603584;28;20562;-62
2022/10/06 12:38:30;;;;;;;7.05;1.85;;;;;;;;;;20618861;28;20046;-64
2022/10/06 12:48:46;;;;;;;8.73;2.55;;;;;;;;;;20600659;28;20533;-65
2022/10/06 12:58:48;;;;;;;8.02;2.72;;;;;;;;;;20614702;28;20057;-62
2022/10/06 13:09:04;;;;;;;3.08;1.98;;;;;;;;;;20613899;28;20055;-62
2022/10/06 13:19:14;;;;;;;5.13;2.10;;;;;;;;;;20597130;28;20059;-62
2022/10/06 13:29:18;;;;;;;7.25;2.55;;;;;;;;;;20597653;28;20396;-61
2022/10/06 13:39:21;;;;;;;6.80;2.35;;;;;;;;;;20597257;28;20047;-63
2022/10/06 13:49:23;;;;;;;7.25;2.22;;;;;;;;;;20596005;28;20091;-66
2022/10/06 13:59:35;;;;;;;4.30;2.05;;;;;;;;;;20609683;28;20389;-64
2022/10/06 14:09:37;;;;;;;4.93;1.80;;;;;;;;;;20593812;28;20061;-63
2022/10/06 14:19:40;;;;;;;3.25;1.83;;;;;;;;;;20593353;28;20055;-63
2022/10/06 14:29:42;;;;;;;10.55;2.03;;;;;;;;;;20592247;28;20057;-65
2022/10/06 14:39:45;;;;;;;7.85;3.85;;;;;;;;;;20591361;28;20129;-65
2022/10/06 14:49:47;;;;;;;8.40;1.98;;;;;;;;;;20591431;28;20046;-64
2022/10/06 14:59:50;;;;;;;8.77;2.00;;;;;;;;;;20590457;28;20138;-61
2022/10/06 15:09:52;;;;;;;7.80;2.03;;;;;;;;;;20590329;28;20352;-62
2022/10/06 15:19:54;;;;;;;9.23;3.10;;;;;;;;;;20588916;28;20055;-65
2022/10/06 15:29:56;;;;;;;6.93;1.83;;;;;;;;;;20590474;28;20055;-61
2022/10/06 15:40:00;;;;;;;8.35;2.10;;;;;;;;;;20587731;28;20463;-61
2022/10/06 15:50:02;;;;;;;7.22;1.63;;;;;;;;;;20586769;28;20105;-65
2022/10/06 16:00:05;;;;;;;4.38;1.50;;;;;;;;;;20587938;28;20046;-63
2022/10/06 16:10:07;;;;;;;5.82;1.48;;;;;;;;;;20585551;28;20051;-62
2022/10/06 16:20:10;;;;;;;10.10;1.25;;;;;;;;;;20586526;28;20047;-62
2022/10/06 16:30:12;;;;;;;6.20;1.88;;;;;;;;;;20586803;28;20082;-65
2022/10/06 16:40:17;;;;;;;7.97;1.50;;;;;;;;;;20584839;28;20054;-62
2022/10/06 16:50:19;;;;;;;7.13;1.67;;;;;;;;;;20584099;28;20066;-62
2022/10/06 17:00:21;;;;;;;7.65;1.60;;;;;;;;;;20598929;28;20058;-62
2022/10/06 17:10:24;;;;;;;6.10;1.85;;;;;;;;;;20599046;28;20051;-61
2022/10/06 17:20:26;;;;;;;5.95;1.85;;;;;;;;;;20598229;28;20051;-63
2022/10/06 17:30:30;;;;;;;8.98;2.83;;;;;;;;;;20596850;28;20051;-64
2022/10/06 17:40:33;;;;;;;4.82;2.42;;;;;;;;;;20595587;28;20051;-64
2022/10/06 17:50:35;;;;;;;9.80;4.18;;;;;;;;;;20595777;28;20097;-65
2022/10/06 18:00:37;;;;;;;15.15;3.88;;;;;;;;;;20594746;28;20046;-64
2022/10/06 18:21:08;;;;;;;9.10;3.95;;;;;;;;;;20593469;28;20082;-61
2022/10/06 18:31:11;;;;;;;13.07;5.45;;;;;;;;;;20592868;28;20051;-61
2022/10/06 18:41:15;;;;;;;16.42;7.00;;;;;;;;;;20608099;28;20487;-63
2022/10/06 18:51:18;;;;;;;17.95;6.53;;;;;;;;;;20590855;28;20047;-65
2022/10/06 19:01:20;;;;;;;18.48;5.93;;;;;;;;;;20590193;28;20051;-63
2022/10/06 19:11:41;;;;;;;21.00;6.00;;;;;;;;;;20590332;28;20070;-62
2022/10/06 19:21:44;;;;;;;21.58;9.85;;;;;;;;;;20589094;28;20054;-64
2022/10/06 19:31:46;;;;;;;13.77;5.22;;;;;;;;;;20589248;28;20530;-63
2022/10/06 19:52:11;;;;;;;20.33;7.65;;;;;;;;;;20587122;28;20145;-63
2022/10/06 20:02:13;;;;;;;22.55;8.50;;;;;;;;;;20587065;28;20043;-64
2022/10/06 20:12:15;;;;;;;20.08;9.13;;;;;;;;;;20586344;28;20112;-60
2022/10/06 20:22:17;;;;;;;17.40;6.20;;;;;;;;;;20586015;28;20106;-61
2022/10/06 20:32:19;;;;;;;15.88;4.35;;;;;;;;;;20598539;28;20055;-62
2022/10/06 20:42:21;;;;;;;11.80;3.83;;;;;;;;;;20600121;28;20074;-61
2022/10/06 20:52:23;;;;;;;13.60;3.25;;;;;;;;;;20600186;28;20479;-61
2022/10/06 21:02:25;;;;;;;7.43;2.20;;;;;;;;;;20600338;28;20046;-61
2022/10/06 21:12:27;;;;;;;11.50;2.85;;;;;;;;;;20600236;28;20357;-63
2022/10/06 21:22:30;;;;;;;10.85;3.50;;;;;;;;;;20599087;28;20495;-64
2022/10/06 21:32:31;;;;;;;5.80;2.00;;;;;;;;;;20597538;28;20050;-63
2022/10/06 21:42:33;;;;;;;7.47;1.98;;;;;;;;;;20595498;28;20054;-61
2022/10/06 21:52:35;;;;;;;12.63;2.30;;;;;;;;;;20596011;28;20423;-66
2022/10/06 22:02:37;;;;;;;6.88;1.55;;;;;;;;;;20596997;28;20101;-61
2022/10/06 22:12:40;;;;;;;8.43;1.70;;;;;;;;;;20596119;28;20415;-61
2022/10/06 22:22:42;;;;;;;5.63;1.33;;;;;;;;;;20593794;28;20058;-61
2022/10/06 22:32:44;;;;;;;8.73;1.42;;;;;;;;;;20592602;28;20479;-62
2022/10/06 22:42:46;;;;;;;6.22;1.77;;;;;;;;;;20591816;28;20113;-62
2022/10/06 22:52:48;;;;;;;6.55;1.40;;;;;;;;;;20591089;28;20510;-61
2022/10/06 23:02:50;;;;;;;6.03;1.27;;;;;;;;;;20590897;28;20133;-63
2022/10/06 23:12:56;;;;;;;5.05;1.45;;;;;;;;;;20589363;28;20101;-63
2022/10/06 23:22:58;;;;;;;3.28;0.90;;;;;;;;;;20589045;28;20154;-61
2022/10/06 23:33:00;;;;;;;2.97;1.00;;;;;;;;;;20589274;28;20050;-60
2022/10/06 23:43:02;;;;;;;3.40;0.90;;;;;;;;;;20587326;28;20079;-61
2022/10/06 23:53:04;;;;;;;3.58;0.70;;;;;;;;;;20587677;28;20520;-62
